Flight Track Log - Related Links

Times and Time Zones

All times are in EDT time to prevent confusion due to time zone crossing. See the THY1302 flight status page for this flight to view local times or setup timezone preferences in your user account.


Time Position Orientation Groundspeed Altitude Reporting Facility
EDT Latitude Longitude Course Direction KTS MPH feet Rate Location/Type
Wed 09:02:00 AM 39.9099 1.9797 77° East  Level Estimated
Wed 09:03:00 AM 39.9345 2.1345 78° East  Level Estimated
Wed 09:04:00 AM 39.9588 2.2894 78° East  Level Estimated
Wed 09:05:00 AM 39.9830 2.4445 78° East  Level Estimated
Wed 09:06:00 AM 40.0069 2.5996 79° East  Level Estimated
Wed 09:07:00 AM 40.0306 2.7549 79° East  Level Estimated
Wed 09:08:00 AM 40.0542 2.9102 79° East  Level Estimated
Wed 09:09:00 AM 40.0775 3.0657 79° East  Level Estimated
Wed 09:10:00 AM 40.1006 3.2213 79° East  Level Estimated
Wed 09:11:00 AM 40.1235 3.3769 79° East  Level Estimated
Wed 09:12:00 AM 40.1462 3.5327 79° East  Level Estimated
Wed 09:13:00 AM 40.1687 3.6886 79° East  Level Estimated
Wed 09:14:00 AM 40.1909 3.8446 79° East  Level Estimated
Wed 09:15:00 AM 40.2130 4.0007 79° East  Level Estimated
Wed 09:16:00 AM 40.2348 4.1569 80° East  Level Estimated
Wed 09:17:00 AM 40.2565 4.3132 80° East  Level Estimated
Wed 09:18:00 AM 40.2779 4.4696 80° East  Level Estimated
Wed 09:19:00 AM 40.2991 4.6260 80° East  Level Estimated
Wed 09:20:00 AM 40.3201 4.7826 80° East  Level Estimated
Wed 09:21:00 AM 40.3409 4.9393 80° East  Level Estimated
Wed 09:22:00 AM 40.3615 5.0961 80° East  Level Estimated
Wed 09:23:00 AM 40.3819 5.2530 80° East  Level Estimated
Wed 09:24:00 AM 40.4021 5.4099 80° East  Level Estimated
Wed 09:25:00 AM 40.4220 5.5670 80° East  Level Estimated
Wed 09:26:00 AM 40.4417 5.7241 81° East  Level Estimated
Wed 09:27:00 AM 40.4613 5.8814 81° East  Level Estimated
Wed 09:28:00 AM 40.4806 6.0387 81° East  Level Estimated
Wed 09:29:00 AM 40.4997 6.1962 81° East  Level Estimated
Wed 09:30:00 AM 40.5186 6.3537 81° East  Level Estimated
Wed 09:31:00 AM 40.5372 6.5113 81° East  Level Estimated
Wed 09:32:00 AM 40.5557 6.6690 81° East  Level Estimated
Wed 09:33:00 AM 40.5739 6.8268 81° East  Level Estimated
Wed 09:34:00 AM 40.5919 6.9846 81° East  Level Estimated
Wed 09:35:00 AM 40.6098 7.1426 82° East  Level Estimated
Wed 09:36:00 AM 40.6274 7.3006 82° East  Level Estimated
Wed 09:37:00 AM 40.6447 7.4587 82° East  Level Estimated
Wed 09:38:00 AM 40.6619 7.6169 82° East  Level Estimated
Wed 09:39:00 AM 40.6788 7.7752 82° East  Level Estimated
Wed 09:40:00 AM 40.6956 7.9336 82° East  Level Estimated
Wed 09:41:00 AM 40.7121 8.0920 82° East  Level Estimated
Wed 09:42:00 AM 40.7284 8.2505 82° East  Level Estimated
Wed 09:43:00 AM 40.7445 8.4091 82° East  Level Estimated
Wed 09:44:00 AM 40.7603 8.5678 82° East  Level Estimated
Wed 09:45:00 AM 40.7760 8.7265 83° East  Level Estimated
Wed 09:46:00 AM 40.7914 8.8853 83° East  Level Estimated
Wed 09:47:00 AM 40.8066 9.0442 83° East  Level Estimated
Wed 09:48:00 AM 40.8216 9.2032 83° East  Level Estimated
Wed 09:49:00 AM 40.8364 9.3622 83° East  Level Estimated
Wed 09:50:00 AM 40.8510 9.5213 83° East  Level Estimated
Wed 09:51:00 AM 40.8653 9.6805 83° East  Level Estimated
Wed 09:52:00 AM 40.8794 9.8398 83° East  Level Estimated
Wed 09:53:00 AM 40.8933 9.9991 83° East  Level Estimated
Wed 09:54:00 AM 40.9070 10.1585 83° East  Level Estimated
Wed 09:55:00 AM 40.9205 10.3179 84° East  Level Estimated
Wed 09:56:00 AM 40.9337 10.4774 84° East  Level Estimated
Wed 09:57:00 AM 40.9467 10.6370 84° East  Level Estimated
Wed 09:58:00 AM 40.9595 10.7966 84° East  Level Estimated
Wed 09:59:00 AM 40.9721 10.9563 84° East  Level Estimated
Wed 10:00:00 AM 40.9845 11.1160 84° East  Level Estimated
Wed 10:01:00 AM 40.9966 11.2759 84° East  Level Estimated
Wed 10:02:00 AM 41.0085 11.4357 84° East  Level Estimated
Wed 10:03:00 AM 41.0202 11.5957 84° East  Level Estimated
Wed 10:04:00 AM 41.0317 11.7556 85° East  Level Estimated
Wed 10:05:00 AM 41.0430 11.9157 85° East  Level Estimated
Wed 10:06:00 AM 41.0540 12.0758 85° East  Level Estimated
Wed 10:07:00 AM 41.0648 12.2359 85° East  Level Estimated
Wed 10:08:00 AM 41.0754 12.3961 85° East  Level Estimated
Wed 10:09:00 AM 41.0858 12.5564 85° East  Level Estimated
Wed 10:10:00 AM 41.0959 12.7167 85° East  Level Estimated
Wed 10:11:00 AM 41.1059 12.8770 85° East  Level Estimated
Wed 10:12:00 AM 41.1156 13.0374 85° East  Level Estimated
Wed 10:13:00 AM 41.1250 13.1979 85° East  Level Estimated
Wed 10:14:00 AM 41.1343 13.3584 86° East  Level Estimated
Wed 10:15:00 AM 41.1433 13.5189 86° East  Level Estimated
Wed 10:16:00 AM 41.1521 13.6795 86° East  Level Estimated
Wed 10:17:00 AM 41.1607 13.8401 86° East  Level Estimated
Wed 10:18:00 AM 41.1691 14.0008 86° East  Level Estimated
Wed 10:19:00 AM 41.1772 14.1615 86° East  Level Estimated
Wed 10:20:00 AM 41.1852 14.3222 86° East  Level Estimated
Wed 10:21:00 AM 41.1929 14.4830 86° East  Level Estimated
Wed 10:22:00 AM 41.2003 14.6438 86° East  Level Estimated
Wed 10:23:00 AM 41.2076 14.8047 87° East  Level Estimated
Wed 10:24:00 AM 41.2146 14.9656 87° East  Level Estimated
Wed 10:25:00 AM 41.2214 15.1265 87° East  Level Estimated
Wed 10:26:00 AM 41.2280 15.2875 87° East  Level Estimated
Wed 10:27:00 AM 41.2343 15.4485 87° East  Level Estimated
Wed 10:28:00 AM 41.2405 15.6095 87° East  Level Estimated
Wed 10:29:00 AM 41.2464 15.7705 87° East  Level Estimated
Wed 10:30:00 AM 41.2520 15.9316 87° East  Level Estimated
Wed 10:31:00 AM 41.2575 16.0927 87° East  Level Estimated
Wed 10:32:00 AM 41.2627 16.2539 87° East  Level Estimated
Wed 10:33:00 AM 41.2677 16.4150 88° East  Level Estimated
Wed 10:34:00 AM 41.2725 16.5762 88° East  Level Estimated
Wed 10:35:00 AM 41.2771 16.7374 88° East  Level Estimated
Wed 10:36:00 AM 41.2814 16.8986 88° East  Level Estimated
Wed 10:37:00 AM 41.2855 17.0599 88° East  Level Estimated
Wed 10:38:00 AM 41.2894 17.2211 88° East  Level Estimated
Wed 10:39:00 AM 41.2931 17.3824 88° East  Level Estimated
Wed 10:40:00 AM 41.2965 17.5437 88° East  Level Estimated
Wed 10:41:00 AM 41.2997 17.7051 88° East  Level Estimated
Wed 10:42:00 AM 41.3027 17.8664 89° East  Level Estimated
Wed 10:43:00 AM 41.3054 18.0278 89° East  Level Estimated
Wed 10:44:00 AM 41.3080 18.1891 89° East  Level Estimated
Wed 10:45:00 AM 41.3103 18.3505 89° East  Level Estimated
Wed 10:46:00 AM 41.3123 18.5119 89° East  Level Estimated
Wed 10:47:00 AM 41.3142 18.6733 89° East  Level Estimated
Wed 10:48:00 AM 41.3158 18.8347 89° East  Level Estimated
Wed 10:49:00 AM 41.3172 18.9961 89° East  Level Estimated
Wed 10:50:00 AM 41.3184 19.1575 89° East  Level Estimated
Wed 10:51:00 AM 41.3194 19.3189 89° East  Level Estimated
Wed 10:52:00 AM 41.3201 19.4804 90° East  Level Estimated
Wed 10:53:00 AM 41.3206 19.6418 90° East  Level Estimated
Wed 10:54:00 AM 41.3209 19.8032 90° East  Level Estimated
Wed 10:55:00 AM 41.3209 19.9646 90° East  Level Estimated
Wed 10:56:00 AM 41.3207 20.1261 90° East  Level Estimated
Wed 10:57:00 AM 41.3203 20.2875 90° East  Level Estimated
Wed 10:58:00 AM 41.3197 20.4489 90° East  Level Estimated
Wed 10:59:00 AM 41.3189 20.6104 90° East  Level Estimated
Wed 11:00:00 AM 41.3178 20.7718 90° East  Level Estimated
Wed 11:01:00 AM 41.3165 20.9332 91° East  Level Estimated
Wed 11:02:00 AM 41.3149 21.0946 91° East  Level Estimated
Wed 11:03:00 AM 41.3132 21.2560 91° East  Level Estimated
Wed 11:04:00 AM 41.3112 21.4174 91° East  Level Estimated
Wed 11:05:00 AM 41.3090 21.5788 91° East  Level Estimated
Wed 11:06:00 AM 41.3066 21.7402 91° East  Level Estimated
Wed 11:07:00 AM 41.3039 21.9015 91° East  Level Estimated
Wed 11:08:00 AM 41.3010 22.0629 91° East  Level Estimated
Wed 11:09:00 AM 41.2979 22.2242 91° East  Level Estimated
Wed 11:10:00 AM 41.2946 22.3855 92° East  Level Estimated
Wed 11:11:00 AM 41.2910 22.5468 92° East  Level Estimated
Wed 11:12:00 AM 41.2873 22.7081 92° East  Level Estimated
Wed 11:13:00 AM 41.2832 22.8693 92° East  Level Estimated
Wed 11:14:00 AM 41.2790 23.0306 92° East  Level Estimated
Wed 11:15:00 AM 41.2746 23.1918 92° East  Level Estimated
Wed 11:16:00 AM 41.2699 23.3530 92° East  Level Estimated
Wed 11:17:00 AM 41.2650 23.5141 92° East  Level Estimated
Wed 11:18:00 AM 41.2598 23.6753 92° East  Level Estimated
Wed 11:19:00 AM 41.2545 23.8364 92° East  Level Estimated
Wed 11:20:00 AM 41.2489 23.9975 93° East  Level Estimated
Wed 11:21:00 AM 41.2431 24.1586 93° East  Level Estimated
Wed 11:22:00 AM 41.2370 24.3196 93° East  Level Estimated
Wed 11:23:00 AM 41.2308 24.4806 93° East  Level Estimated
Wed 11:24:00 AM 41.2243 24.6416 93° East  Level Estimated
Wed 11:25:00 AM 41.2176 24.8025 93° East  Level Estimated
Wed 11:26:00 AM 41.2107 24.9634 93° East  Level Estimated
Wed 11:27:00 AM 41.2035 25.1243 93° East  Level Estimated
Wed 11:28:00 AM 41.1962 25.2851 93° East  Level Estimated
Wed 11:29:00 AM 41.1886 25.4459 94° East  Level Estimated
Wed 11:30:00 AM 41.1808 25.6067 94° East  Level Estimated
Wed 11:31:00 AM 41.1727 25.7674 94° East  Level Estimated
Wed 11:32:00 AM 41.1644 25.9281 94° East  Level Estimated
Wed 11:33:00 AM 41.1559 26.0887 94° East  Level Estimated
Wed 11:34:00 AM 41.1472 26.2493 94° East  Level Estimated
Wed 11:35:00 AM 41.1383 26.4099 94° East  Level Estimated
Wed 11:36:00 AM 41.1291 26.5704 94° East  Level Estimated
Wed 11:37:00 AM 41.1198 26.7309 94° East  Level Estimated
Wed 11:38:00 AM 41.1101 26.8913 94° East  Level Estimated
Wed 11:39:00 AM 41.1003 27.0516 95° East  Level Estimated
Wed 11:40:00 AM 41.0903 27.2120 95° East  Level Estimated
Wed 11:41:00 AM 41.0800 27.3722 95° East  Level Estimated
Wed 11:42:00 AM 41.0695 27.5324 95° East  Level Estimated
Wed 11:43:00 AM 41.0588 27.6926 95° East  Level Estimated
Wed 11:44:00 AM 41.0479 27.8527 95° East  Level Estimated
Wed 11:45:00 AM 41.0367 28.0128 95° East  Level Estimated
Wed 11:46:00 AM 41.0253 28.1728 95° East  Level Estimated
Wed 11:47:00 AM 41.0137 28.3328 95° East  Level Estimated
Wed 11:48:00 AM 41.0019 28.4927 96° East  Level Estimated
Wed 11:49:00 AM 40.9898 28.6525 96° East  Level Estimated
Wed 11:50:00 AM 40.9776 28.8123 96° East  Level Estimated
Wed 11:51:00 AM 40.9769 28.8211 96° East  Level Estimated
Wed 11:52:00 AM 40.9769 28.8211 21° North  Level Estimated
Wed 11:53:00 AM 40.9769 28.8211 21° North  Level Estimated
Wed 11:54:00 AM 40.9769 28.8211 21° North  Level Estimated
Wed 11:55:00 AM 40.9769 28.8211 21° North  Level Estimated
Wed 11:56:00 AM 40.9769 28.8211 21° North  Level Estimated
Wed 11:57:00 AM 40.9769 28.8211 21° North  Level Estimated
Wed 11:58:00 AM 40.9769 28.8211 21° North  Level Estimated
Wed 11:59:00 AM 40.9769 28.8211 21° North  Level Estimated
Wed 12:00:00 PM 40.9769 28.8211 21° North  Level Estimated

Login

Don't have an account? Register now (free) for customized features, flight alerts, and more!